createdAt,value
2019-03-22T00:00:38.893Z,102429.66
2019-03-22T00:03:07.282Z,102431.66
2019-03-22T00:05:35.675Z,102428.55
2019-03-22T00:08:03.999Z,102426.19
2019-03-22T00:10:32.542Z,102428.08
2019-03-22T00:13:00.869Z,102421.70
2019-03-22T00:15:29.160Z,102417.84
2019-03-22T00:17:57.466Z,102414.84
2019-03-22T00:20:25.780Z,102408.65
2019-03-22T00:22:54.380Z,102415.49
2019-03-22T00:25:22.669Z,102421.86
2019-03-22T00:27:50.967Z,102418.00
2019-03-22T00:30:19.287Z,102413.41
2019-03-22T00:32:47.596Z,102409.01
2019-03-22T00:35:15.911Z,102409.22
2019-03-22T00:37:44.586Z,102411.62
2019-03-22T00:40:13.071Z,102416.20
2019-03-22T00:42:41.625Z,102415.00
2019-03-22T00:45:11.450Z,102411.71
2019-03-22T00:47:39.777Z,102409.16
2019-03-22T00:50:10.658Z,102409.56
2019-03-22T00:52:38.969Z,102406.72
2019-03-22T00:55:07.729Z,102408.97
2019-03-22T00:57:36.094Z,102406.82
2019-03-22T01:00:07.593Z,102412.91
2019-03-22T01:02:35.899Z,102409.16
2019-03-22T01:05:06.592Z,102416.66
2019-03-22T01:07:35.090Z,102412.91
2019-03-22T01:10:05.450Z,102417.31
2019-03-22T01:12:33.827Z,102410.93
2019-03-22T01:15:02.451Z,102410.09
2019-03-22T01:17:30.779Z,102414.67
2019-03-22T01:19:59.111Z,102409.78
2019-03-22T01:22:27.431Z,102398.80
2019-03-22T01:24:55.777Z,102396.35
2019-03-22T01:27:24.149Z,102394.48
2019-03-22T01:29:52.813Z,102392.50
2019-03-22T01:32:21.121Z,102394.72
2019-03-22T01:34:49.411Z,102395.02
2019-03-22T01:37:17.721Z,102384.70
2019-03-22T01:39:46.323Z,102390.49
2019-03-22T01:42:14.642Z,102386.66
2019-03-22T01:44:42.929Z,102381.59
2019-03-22T01:47:11.566Z,102384.86
2019-03-22T01:49:39.973Z,102390.84
2019-03-22T01:52:08.283Z,102392.99
2019-03-22T01:54:36.906Z,102391.95
2019-03-22T01:57:05.232Z,102390.20
2019-03-22T01:59:33.871Z,102383.35
2019-03-22T02:02:02.441Z,102377.04
2019-03-22T02:04:30.742Z,102383.32
2019-03-22T02:06:59.312Z,102381.34
2019-03-22T02:09:27.632Z,102367.30
2019-03-22T02:11:55.932Z,102383.02
2019-03-22T02:14:24.250Z,102377.95
2019-03-22T02:16:52.648Z,102381.69
2019-03-22T02:19:21.299Z,102377.66
2019-03-22T02:21:49.602Z,102376.27
2019-03-22T02:24:17.906Z,102374.97
2019-03-22T02:26:46.469Z,102374.20
2019-03-22T02:29:14.823Z,102383.56
2019-03-22T02:31:43.400Z,102376.11
2019-03-22T02:34:11.722Z,102378.72
2019-03-22T02:36:40.014Z,102377.59
2019-03-22T02:39:08.346Z,102374.30
2019-03-22T02:41:36.643Z,102376.69
2019-03-22T02:44:05.159Z,102382.56
2019-03-22T02:46:33.777Z,102380.58
2019-03-22T02:49:02.183Z,102369.19
2019-03-22T02:51:30.526Z,102377.12
2019-03-22T02:53:58.831Z,102362.05
2019-03-22T02:56:27.143Z,102369.16
2019-03-22T02:58:59.065Z,102362.21
2019-03-22T03:01:25.468Z,102363.15
2019-03-22T03:03:54.079Z,102357.08
2019-03-22T03:06:22.492Z,102359.22
2019-03-22T03:08:50.803Z,102349.22
2019-03-22T03:11:19.102Z,102349.95
2019-03-22T03:13:47.796Z,102345.83
2019-03-22T03:16:16.125Z,102350.39
2019-03-22T03:18:44.413Z,102353.95
2019-03-22T03:21:12.734Z,102345.72
2019-03-22T03:23:41.044Z,102348.91
2019-03-22T03:26:09.473Z,102350.76
2019-03-22T03:28:37.869Z,102354.32
2019-03-22T03:31:06.406Z,102349.92
2019-03-22T03:33:34.744Z,102348.08
2019-03-22T03:36:03.067Z,102354.05
2019-03-22T03:38:31.371Z,102349.92
2019-03-22T03:40:59.953Z,102352.13
2019-03-22T03:43:28.238Z,102342.94
2019-03-22T03:45:56.645Z,102347.19
2019-03-22T03:48:25.290Z,102353.53
2019-03-22T03:50:53.996Z,102359.13
2019-03-22T03:53:22.332Z,102352.80
2019-03-22T03:55:50.660Z,102340.55
2019-03-22T03:58:19.042Z,102344.20
2019-03-22T04:00:47.329Z,102339.67
2019-03-22T04:03:15.647Z,102339.20
2019-03-22T04:05:43.966Z,102332.48
2019-03-22T04:08:12.338Z,102337.25
2019-03-22T04:10:40.668Z,102334.53
2019-03-22T04:13:08.982Z,102342.08
2019-03-22T04:15:37.278Z,102339.83
2019-03-22T04:18:05.976Z,102325.27
2019-03-22T04:20:34.274Z,102325.47
2019-03-22T04:23:02.585Z,102317.42
2019-03-22T04:25:30.927Z,102317.95
2019-03-22T04:27:59.217Z,102330.20
2019-03-22T04:30:27.591Z,102324.70
2019-03-22T04:32:55.880Z,102332.92
2019-03-22T04:35:24.184Z,102330.13
2019-03-22T04:37:52.496Z,102334.64
2019-03-22T04:40:25.430Z,102330.24
2019-03-22T04:42:53.778Z,102334.37
2019-03-22T04:45:22.375Z,102335.23
2019-03-22T04:48:03.056Z,102336.97
2019-03-22T04:50:33.838Z,102330.84
2019-03-22T04:53:02.649Z,102337.61
2019-03-22T04:55:31.686Z,102333.95
2019-03-22T04:58:00.119Z,102337.03
2019-03-22T05:00:28.580Z,102335.72
2019-03-22T05:02:57.081Z,102327.03
2019-03-22T05:05:26.349Z,102330.08
2019-03-22T05:07:54.725Z,102326.42
2019-03-22T05:10:23.922Z,102326.95
2019-03-22T05:12:53.509Z,102331.44
2019-03-22T05:15:22.245Z,102334.80
2019-03-22T05:17:50.740Z,102333.42
2019-03-22T05:20:20.623Z,102328.82
2019-03-22T05:22:49.308Z,102329.75
2019-03-22T05:25:18.379Z,102328.98
2019-03-22T05:27:47.483Z,102327.14
2019-03-22T05:30:49.531Z,102323.90
2019-03-22T05:33:17.846Z,102321.96
2019-03-22T05:35:46.140Z,102316.63
2019-03-22T05:38:14.507Z,102321.49
2019-03-22T05:40:42.830Z,102323.64
2019-03-22T05:43:11.166Z,102325.32
2019-03-22T05:45:39.811Z,102332.80
2019-03-22T05:48:08.137Z,102331.48
2019-03-22T05:50:36.771Z,102337.93
2019-03-22T05:53:05.323Z,102341.23
2019-03-22T05:55:33.939Z,102340.53
2019-03-22T05:58:02.301Z,102347.75
2019-03-22T06:00:30.630Z,102341.98
2019-03-22T06:02:58.942Z,102355.91
2019-03-22T06:05:27.246Z,102351.05
2019-03-22T06:07:55.543Z,102355.95
2019-03-22T06:10:23.845Z,102350.56
2019-03-22T06:12:52.483Z,102351.45
2019-03-22T06:15:20.782Z,102350.18
2019-03-22T06:17:51.998Z,102357.60
2019-03-22T06:20:19.155Z,102354.19
2019-03-22T06:22:47.976Z,102356.09
2019-03-22T06:25:16.270Z,102356.30
2019-03-22T06:27:44.575Z,102360.36
2019-03-22T06:30:12.939Z,102358.72
2019-03-22T06:32:41.261Z,102361.27
2019-03-22T06:35:09.593Z,102369.55
2019-03-22T06:37:37.899Z,102367.50
2019-03-22T06:40:07.616Z,102369.88
2019-03-22T06:42:36.177Z,102370.27
2019-03-22T06:45:06.166Z,102377.98
2019-03-22T06:47:34.405Z,102375.31
2019-03-22T06:50:02.896Z,102377.00
2019-03-22T06:52:31.190Z,102383.50
2019-03-22T06:54:59.851Z,102386.02
2019-03-22T06:57:28.142Z,102397.36
2019-03-22T07:00:05.996Z,102402.17
2019-03-22T07:02:26.765Z,102401.72
2019-03-22T07:04:55.333Z,102406.97
2019-03-22T07:07:23.710Z,102406.50
2019-03-22T07:09:52.042Z,102401.73
2019-03-22T07:12:20.341Z,102403.41
2019-03-22T07:14:48.638Z,102399.58
2019-03-22T07:17:16.967Z,102407.34
2019-03-22T07:19:45.277Z,102414.67
2019-03-22T07:22:13.587Z,102411.39
2019-03-22T07:24:41.971Z,102406.91
2019-03-22T07:27:10.300Z,102411.86
2019-03-22T07:29:38.872Z,102411.13
2019-03-22T07:32:07.475Z,102414.62
2019-03-22T07:34:36.050Z,102411.44
2019-03-22T07:37:04.423Z,102419.66
2019-03-22T07:39:32.745Z,102415.26
2019-03-22T07:42:01.047Z,102413.23
2019-03-22T07:44:29.362Z,102415.06
2019-03-22T07:46:57.648Z,102412.19
2019-03-22T07:49:25.976Z,102406.20
2019-03-22T07:51:54.268Z,102405.00
2019-03-22T07:54:22.863Z,102407.59
2019-03-22T07:56:51.457Z,102405.67
2019-03-22T07:59:19.766Z,102397.20
2019-03-22T08:01:48.074Z,102402.23
2019-03-22T08:04:16.391Z,102398.49
2019-03-22T08:06:44.677Z,102393.58
2019-03-22T08:09:13.004Z,102386.84
2019-03-22T08:11:41.297Z,102385.48
2019-03-22T08:14:09.612Z,102383.20
2019-03-22T08:16:38.284Z,102381.87
2019-03-22T08:19:06.591Z,102378.88
2019-03-22T08:21:34.908Z,102385.95
2019-03-22T08:24:03.520Z,102379.66
2019-03-22T08:26:32.205Z,102378.58
2019-03-22T08:29:00.530Z,102376.84
2019-03-22T08:31:29.170Z,102378.56
2019-03-22T08:33:57.482Z,102373.92
2019-03-22T08:36:25.878Z,102364.14
2019-03-22T08:38:54.162Z,102361.44
2019-03-22T08:41:24.032Z,102353.59
2019-03-22T08:43:52.802Z,102353.14
2019-03-22T08:46:21.393Z,102350.42
2019-03-22T08:48:49.796Z,102350.73
2019-03-22T08:51:18.099Z,102352.92
2019-03-22T08:53:55.153Z,102344.08
2019-03-22T08:56:16.431Z,102339.29
2019-03-22T08:58:44.753Z,102341.61
2019-03-22T09:01:13.050Z,102340.22
2019-03-22T09:03:41.385Z,102344.58
2019-03-22T09:06:09.781Z,102339.81
2019-03-22T09:08:38.166Z,102339.81
2019-03-22T09:11:06.488Z,102332.02
2019-03-22T09:13:34.856Z,102337.66
2019-03-22T09:16:03.102Z,102331.81
2019-03-22T09:18:31.404Z,102331.84
2019-03-22T09:20:59.764Z,102330.05
2019-03-22T09:23:28.411Z,102334.95
2019-03-22T09:25:56.728Z,102329.89
2019-03-22T09:28:25.241Z,102328.20
2019-03-22T09:30:53.834Z,102332.28
2019-03-22T09:33:22.136Z,102323.03
2019-03-22T09:35:50.469Z,102324.45
2019-03-22T09:38:18.824Z,102322.86
2019-03-22T09:40:47.101Z,102320.66
2019-03-22T09:43:15.407Z,102315.45
2019-03-22T09:45:44.531Z,102313.88
2019-03-22T09:48:12.981Z,102311.89
2019-03-22T09:50:41.246Z,102307.05
2019-03-22T09:53:09.560Z,102297.35
2019-03-22T09:55:37.879Z,102303.42
2019-03-22T09:58:06.165Z,102293.79
2019-03-22T10:00:35.378Z,102296.84
2019-03-22T10:03:04.451Z,102293.35
2019-03-22T10:05:32.712Z,102289.34
2019-03-22T10:08:01.900Z,102288.94
2019-03-22T10:10:30.234Z,102288.63
2019-03-22T10:12:58.544Z,102291.14
2019-03-22T10:15:26.886Z,102284.36
2019-03-22T10:17:55.175Z,102281.82
2019-03-22T10:20:23.764Z,102279.66
2019-03-22T10:22:52.098Z,102280.17
2019-03-22T10:25:20.398Z,102272.18
2019-03-22T10:27:49.013Z,102271.98
2019-03-22T10:30:18.233Z,102280.03
2019-03-22T10:32:46.546Z,102272.09
2019-03-22T10:35:25.513Z,102270.13
2019-03-22T10:37:45.204Z,102266.09
2019-03-22T10:40:14.084Z,102265.54
2019-03-22T10:42:42.373Z,102267.70
2019-03-22T10:45:11.019Z,102262.11
2019-03-22T10:47:39.559Z,102261.19
2019-03-22T10:50:09.092Z,102260.84
2019-03-22T10:52:37.423Z,102259.17
2019-03-22T10:55:23.464Z,102260.65
2019-03-22T10:57:40.303Z,102253.28
2019-03-22T11:00:10.836Z,102255.76
2019-03-22T11:02:39.146Z,102251.95
2019-03-22T11:05:07.802Z,102248.13
2019-03-22T11:07:36.118Z,102238.28
2019-03-22T11:10:12.695Z,102243.31
2019-03-22T11:12:40.675Z,102234.19
2019-03-22T11:15:11.711Z,102238.53
2019-03-22T11:17:40.266Z,102226.47
2019-03-22T11:20:17.121Z,102218.78
2019-03-22T11:22:45.518Z,102209.43
2019-03-22T11:25:13.892Z,102210.42
2019-03-22T11:27:42.214Z,102211.06
2019-03-22T11:30:15.964Z,102205.29
2019-03-22T11:32:44.647Z,102206.19
2019-03-22T11:35:12.935Z,102203.59
2019-03-22T11:37:41.605Z,102196.75
2019-03-22T11:40:12.547Z,102190.23
2019-03-22T11:42:41.227Z,102184.58
2019-03-22T11:45:18.061Z,102184.97
2019-03-22T11:47:46.448Z,102180.34
2019-03-22T11:50:15.210Z,102174.19
2019-03-22T11:52:43.499Z,102171.64
2019-03-22T11:55:13.796Z,102170.70
2019-03-22T11:57:42.124Z,102164.34
2019-03-22T12:00:19.513Z,102159.56
2019-03-22T12:02:47.857Z,102153.08
2019-03-22T12:05:17.096Z,102139.18
2019-03-22T12:07:45.401Z,102141.60
2019-03-22T12:10:23.214Z,102131.62
2019-03-22T12:12:51.507Z,102133.83
2019-03-22T12:15:25.992Z,102126.78
2019-03-22T12:17:54.305Z,102130.48
2019-03-22T12:20:23.747Z,102123.16
2019-03-22T12:22:52.546Z,102121.83
2019-03-22T12:25:24.317Z,102116.84
2019-03-22T12:27:52.643Z,102115.41
2019-03-22T12:30:21.108Z,102108.47
2019-03-22T12:32:49.414Z,102108.14
2019-03-22T12:35:18.452Z,102105.20
2019-03-22T12:37:46.860Z,102100.52
2019-03-22T12:40:18.361Z,102094.18
2019-03-22T12:42:46.685Z,102084.16
2019-03-22T12:45:28.620Z,102081.13
2019-03-22T12:47:57.020Z,102079.67
2019-03-22T12:50:25.378Z,102069.84
2019-03-22T12:52:53.857Z,102073.33
2019-03-22T12:55:22.424Z,102064.54
2019-03-22T12:57:50.892Z,102055.92
2019-03-22T13:00:24.833Z,102057.75
2019-03-22T13:02:53.780Z,102049.93
2019-03-22T13:05:22.622Z,102052.09
2019-03-22T13:07:51.262Z,102041.76
2019-03-22T13:10:24.922Z,102042.41
2019-03-22T13:12:53.717Z,102039.25
2019-03-22T13:15:22.026Z,102033.75
2019-03-22T13:17:50.701Z,102029.03
2019-03-22T13:20:19.349Z,102028.27
2019-03-22T13:22:47.654Z,102027.58
2019-03-22T13:25:17.107Z,102019.59
2019-03-22T13:27:45.431Z,102022.25
2019-03-22T13:30:31.235Z,102012.91
2019-03-22T13:32:59.692Z,102007.42
2019-03-22T13:35:27.995Z,102012.43
2019-03-22T13:37:56.761Z,102012.08
2019-03-22T13:40:25.065Z,102013.75
2019-03-22T13:42:53.550Z,102002.09
2019-03-22T13:45:21.837Z,101995.76
2019-03-22T13:47:50.166Z,101987.75
2019-03-22T13:50:18.478Z,101986.60
2019-03-22T13:52:46.886Z,101989.59
2019-03-22T13:55:15.285Z,101980.61
2019-03-22T13:57:43.878Z,101982.60
2019-03-22T14:00:14.121Z,101980.92
2019-03-22T14:02:42.412Z,101968.09
2019-03-22T14:05:11.063Z,101974.09
2019-03-22T14:07:39.655Z,101974.43
2019-03-22T14:10:09.800Z,101967.09
2019-03-22T14:12:38.451Z,101966.09
2019-03-22T14:15:07.649Z,101965.92
2019-03-22T14:17:35.951Z,101965.73
2019-03-22T14:20:11.251Z,101959.58
2019-03-22T14:22:37.286Z,101947.52
2019-03-22T14:25:06.666Z,101956.02
2019-03-22T14:27:34.957Z,101947.72
2019-03-22T14:30:05.338Z,101952.21
2019-03-22T14:32:33.724Z,101942.55
2019-03-22T14:35:02.038Z,101935.00
2019-03-22T14:37:30.347Z,101931.82
2019-03-22T14:39:58.653Z,101928.09
2019-03-22T14:42:26.957Z,101934.40
2019-03-22T14:44:55.383Z,101926.56
2019-03-22T14:47:23.696Z,101921.33
2019-03-22T14:49:52.008Z,101921.78
2019-03-22T14:52:20.603Z,101912.78
2019-03-22T14:54:48.916Z,101915.77
2019-03-22T14:57:17.596Z,101909.41
2019-03-22T14:59:45.886Z,101907.09
2019-03-22T15:02:14.197Z,101904.90
2019-03-22T15:04:42.518Z,101910.02
2019-03-22T15:07:19.377Z,101908.20
2019-03-22T15:09:40.846Z,101900.89
2019-03-22T15:12:09.482Z,101893.90
2019-03-22T15:14:39.440Z,101890.28
2019-03-22T15:17:25.579Z,101889.26
2019-03-22T15:19:55.522Z,101882.91
2019-03-22T15:22:41.797Z,101880.36
2019-03-22T15:25:27.043Z,101884.02
2019-03-22T15:27:59.643Z,101875.77
2019-03-22T15:30:41.665Z,101879.42
2019-03-22T15:33:34.330Z,101870.89
2019-03-22T15:36:08.755Z,101873.10
2019-03-22T15:38:41.909Z,101865.09
2019-03-22T15:41:10.300Z,101865.44
2019-03-22T15:43:38.590Z,101862.17
2019-03-22T15:46:07.238Z,101862.84
2019-03-22T15:48:35.539Z,101862.02
2019-03-22T15:51:03.838Z,101864.14
2019-03-22T15:53:32.164Z,101863.79
2019-03-22T15:56:03.790Z,101862.45
2019-03-22T15:58:32.111Z,101853.62
2019-03-22T16:01:00.415Z,101854.76
2019-03-22T16:03:28.743Z,101854.41
2019-03-22T16:05:57.072Z,101854.13
2019-03-22T16:08:25.473Z,101851.97
2019-03-22T16:10:53.780Z,101854.28
2019-03-22T16:13:22.102Z,101851.97
2019-03-22T16:15:50.435Z,101852.16
2019-03-22T16:18:20.329Z,101847.69
2019-03-22T16:20:48.733Z,101848.70
2019-03-22T16:23:17.053Z,101847.59
2019-03-22T16:25:45.350Z,101847.63
2019-03-22T16:28:13.817Z,101842.80
2019-03-22T16:30:42.463Z,101842.16
2019-03-22T16:33:10.751Z,101844.16
2019-03-22T16:35:39.170Z,101834.53
2019-03-22T16:38:07.457Z,101836.25
2019-03-22T16:40:35.784Z,101835.92
2019-03-22T16:43:04.156Z,101835.79
2019-03-22T16:45:42.463Z,101839.95
2019-03-22T16:48:10.755Z,101837.31
2019-03-22T16:50:39.165Z,101838.36
2019-03-22T16:53:07.467Z,101839.70
2019-03-22T16:55:35.775Z,101833.86
2019-03-22T16:58:04.509Z,101836.70
2019-03-22T17:00:32.814Z,101837.87
2019-03-22T17:03:01.142Z,101834.21
2019-03-22T17:05:29.461Z,101831.06
2019-03-22T17:07:58.077Z,101836.26
2019-03-22T17:10:26.625Z,101832.76
2019-03-22T17:12:54.993Z,101831.60
2019-03-22T17:15:23.281Z,101829.48
2019-03-22T17:17:51.618Z,101834.81
2019-03-22T17:20:19.917Z,101830.84
2019-03-22T17:22:48.226Z,101831.52
2019-03-22T17:25:16.531Z,101833.67
2019-03-22T17:27:44.962Z,101834.36
2019-03-22T17:30:14.197Z,101838.20
2019-03-22T17:32:42.532Z,101834.38
2019-03-22T17:35:10.819Z,101838.39
2019-03-22T17:37:39.147Z,101831.72
2019-03-22T17:40:08.179Z,101824.58
2019-03-22T17:42:36.543Z,101833.23
2019-03-22T17:45:11.027Z,101831.23
2019-03-22T17:47:39.430Z,101828.72
2019-03-22T17:50:09.187Z,101834.19
2019-03-22T17:52:37.477Z,101827.14
2019-03-22T17:55:09.760Z,101829.47
2019-03-22T17:57:38.055Z,101838.23
2019-03-22T18:00:09.528Z,101829.73
2019-03-22T18:02:37.824Z,101824.72
2019-03-22T18:05:08.468Z,101827.49
2019-03-22T18:07:37.037Z,101827.42
2019-03-22T18:10:10.249Z,101826.20
2019-03-22T18:12:38.612Z,101832.12
2019-03-22T18:15:11.182Z,101833.55
2019-03-22T18:17:39.583Z,101837.59
2019-03-22T18:20:15.439Z,101842.50
2019-03-22T18:22:43.742Z,101846.27
2019-03-22T18:25:13.129Z,101846.38
2019-03-22T18:27:41.450Z,101848.42
2019-03-22T18:30:13.779Z,101852.65
2019-03-22T18:32:42.075Z,101856.84
2019-03-22T18:35:10.576Z,101859.55
2019-03-22T18:37:39.230Z,101860.11
2019-03-22T18:40:10.742Z,101858.02
2019-03-22T18:42:39.086Z,101855.52
2019-03-22T18:45:10.243Z,101860.63
2019-03-22T18:47:38.548Z,101858.44
2019-03-22T18:50:08.828Z,101855.05
2019-03-22T18:52:37.390Z,101858.41
2019-03-22T18:55:07.181Z,101856.84
2019-03-22T18:57:36.355Z,101859.78
2019-03-22T19:00:13.356Z,101869.34
2019-03-22T19:02:41.703Z,101866.45
2019-03-22T19:05:10.176Z,101869.83
2019-03-22T19:07:38.854Z,101867.06
2019-03-22T19:10:13.447Z,101866.63
2019-03-22T19:12:41.761Z,101870.13
2019-03-22T19:15:14.787Z,101865.19
2019-03-22T19:17:43.092Z,101870.87
2019-03-22T19:20:12.858Z,101863.28
2019-03-22T19:22:41.150Z,101868.46
2019-03-22T19:25:09.841Z,101871.95
2019-03-22T19:27:38.441Z,101864.56
2019-03-22T19:30:12.596Z,101866.81
2019-03-22T19:32:40.886Z,101860.41
2019-03-22T19:35:09.683Z,101861.09
2019-03-22T19:37:37.985Z,101855.15
2019-03-22T19:40:11.929Z,101858.83
2019-03-22T19:42:40.257Z,101854.47
2019-03-22T19:45:10.413Z,101853.20
2019-03-22T19:47:38.721Z,101854.94
2019-03-22T19:50:09.493Z,101861.83
2019-03-22T19:52:37.833Z,101858.31
2019-03-22T19:55:08.567Z,101863.05
2019-03-22T19:57:37.549Z,101860.33
2019-03-22T20:00:08.867Z,101867.36
2019-03-22T20:02:37.172Z,101863.78
2019-03-22T20:05:07.559Z,101863.38
2019-03-22T20:07:35.854Z,101857.19
2019-03-22T20:10:07.355Z,101866.14
2019-03-22T20:12:35.667Z,101863.69
2019-03-22T20:15:05.524Z,101865.39
2019-03-22T20:17:34.196Z,101859.55
2019-03-22T20:20:02.527Z,101862.71
2019-03-22T20:22:30.866Z,101855.69
2019-03-22T20:24:59.197Z,101857.53
2019-03-22T20:27:27.665Z,101862.74
2019-03-22T20:29:55.996Z,101856.52
2019-03-22T20:32:24.317Z,101862.69
2019-03-22T20:34:52.624Z,101852.65
2019-03-22T20:37:20.964Z,101855.33
2019-03-22T20:39:49.271Z,101852.38
2019-03-22T20:42:17.593Z,101854.58
2019-03-22T20:44:45.888Z,101850.53
2019-03-22T20:47:14.210Z,101852.69
2019-03-22T20:49:42.508Z,101843.13
2019-03-22T20:52:10.841Z,101845.19
2019-03-22T20:54:39.163Z,101841.63
2019-03-22T20:57:07.475Z,101840.68
2019-03-22T20:59:35.799Z,101841.66
2019-03-22T21:02:04.099Z,101848.59
2019-03-22T21:04:32.427Z,101838.91
2019-03-22T21:07:00.765Z,101838.05
2019-03-22T21:09:44.524Z,101836.36
2019-03-22T21:12:12.820Z,101834.95
2019-03-22T21:14:41.157Z,101833.63
2019-03-22T21:17:09.464Z,101840.48
2019-03-22T21:19:38.093Z,101832.82
2019-03-22T21:22:06.672Z,101837.52
2019-03-22T21:24:34.999Z,101838.27
2019-03-22T21:27:03.313Z,101836.36
2019-03-22T21:29:31.620Z,101838.53
2019-03-22T21:31:59.985Z,101838.55
2019-03-22T21:34:28.282Z,101836.07
2019-03-22T21:36:56.946Z,101841.98
2019-03-22T21:39:25.540Z,101838.67
2019-03-22T21:41:53.856Z,101846.73
2019-03-22T21:44:22.180Z,101843.27
2019-03-22T21:46:50.488Z,101838.62
2019-03-22T21:49:18.792Z,101837.80
2019-03-22T21:51:47.100Z,101838.98
2019-03-22T21:54:15.427Z,101832.30
2019-03-22T21:56:43.791Z,101828.13
2019-03-22T21:59:12.448Z,101826.58
2019-03-22T22:01:41.050Z,101825.98
2019-03-22T22:04:09.359Z,101823.11
2019-03-22T22:06:37.666Z,101823.98
2019-03-22T22:09:06.745Z,101828.17
2019-03-22T22:11:35.044Z,101824.46
2019-03-22T22:14:03.393Z,101825.05
2019-03-22T22:16:32.020Z,101823.97
2019-03-22T22:19:00.341Z,101823.86
2019-03-22T22:21:28.637Z,101832.39
2019-03-22T22:23:56.971Z,101825.31
2019-03-22T22:26:25.274Z,101830.58
2019-03-22T22:28:53.565Z,101828.52
2019-03-22T22:31:21.904Z,101833.55
2019-03-22T22:33:50.484Z,101826.85
2019-03-22T22:36:19.228Z,101826.01
2019-03-22T22:38:48.037Z,101821.22
2019-03-22T22:41:16.943Z,101816.67
2019-03-22T22:43:45.516Z,101819.05
2019-03-22T22:46:14.106Z,101815.83
2019-03-22T22:48:42.421Z,101812.02
2019-03-22T22:51:10.767Z,101821.33
2019-03-22T22:53:39.334Z,101825.39
2019-03-22T22:56:07.931Z,101828.52
2019-03-22T22:58:36.256Z,101828.75
2019-03-22T23:01:04.718Z,101828.84
2019-03-22T23:03:33.022Z,101825.13
2019-03-22T23:06:09.078Z,101832.55
2019-03-22T23:08:31.385Z,101826.09
2019-03-22T23:10:59.681Z,101828.47
2019-03-22T23:13:28.326Z,101832.16
2019-03-22T23:15:56.649Z,101832.52
2019-03-22T23:18:24.984Z,101834.66
2019-03-22T23:20:53.397Z,101827.00
2019-03-22T23:23:21.724Z,101824.95
2019-03-22T23:25:50.306Z,101827.71
2019-03-22T23:28:18.624Z,101826.27
2019-03-22T23:30:46.921Z,101825.66
2019-03-22T23:33:15.665Z,101833.04
2019-03-22T23:35:43.948Z,101828.01
2019-03-22T23:38:12.258Z,101831.83
2019-03-22T23:40:40.537Z,101828.46
2019-03-22T23:43:09.086Z,101824.87
2019-03-22T23:45:37.439Z,101824.73
2019-03-22T23:48:06.024Z,101816.73
2019-03-22T23:50:34.616Z,101819.23
2019-03-22T23:53:02.907Z,101818.49
2019-03-22T23:55:31.228Z,101823.74
2019-03-22T23:57:59.551Z,101826.98
